Time;durP1;ratioP1;P1;durP2;ratioP2;P2;SDS_P1;SDS_P2;PMS_P1;PMS_P2;Temp;Humidity;BMP_temperature;BMP_pressure;BME280_temperature;BME280_humidity;BME280_pressure;Samples;Min_cycle;Max_cycle;Signal;HPM_P1;HPM_P2
2023/02/08 00:00:23;;;;;;;17.27;8.30;;;;;;;-2.62;100.00;102514.47;4994759;28;20054;-75
2023/02/08 00:02:49;;;;;;;18.73;9.98;;;;;;;-2.80;100.00;102521.44;4999380;28;20045;-75
2023/02/08 00:05:16;;;;;;;18.80;8.77;;;;;;;-2.89;100.00;102500.09;4995361;28;20061;-76
2023/02/08 00:07:41;;;;;;;16.15;10.40;;;;;;;-2.87;100.00;102498.56;5007495;28;20058;-74
2023/02/08 00:10:09;;;;;;;22.33;10.93;;;;;;;-3.13;100.00;102474.06;4998031;28;20042;-75
2023/02/08 00:12:34;;;;;;;17.88;10.73;;;;;;;-3.94;100.00;102325.72;5000564;28;20157;-77
2023/02/08 00:15:00;;;;;;;16.05;9.23;;;;;;;-3.06;100.00;102460.09;5003444;28;20124;-76
2023/02/08 00:17:26;;;;;;;16.95;10.05;;;;;;;-3.37;100.00;102389.75;5000942;28;20041;-73
2023/02/08 00:19:52;;;;;;;14.82;9.05;;;;;;;-3.20;100.00;102457.19;5003105;28;20054;-74
2023/02/08 00:22:17;;;;;;;16.65;11.13;;;;;;;-3.03;100.00;102450.09;5002878;28;20057;-74
2023/02/08 00:24:43;;;;;;;18.52;11.00;;;;;;;-3.09;100.00;102399.09;5005132;28;20056;-75
2023/02/08 00:27:08;;;;;;;20.25;11.25;;;;;;;-3.27;100.00;102424.06;5008385;28;20394;-72
2023/02/08 00:29:34;;;;;;;18.13;9.98;;;;;;;-3.10;100.00;102465.72;5007432;28;20360;-72
2023/02/08 00:32:00;;;;;;;24.85;8.60;;;;;;;-3.97;100.00;102312.66;5004800;28;20139;-75
2023/02/08 00:34:25;;;;;;;16.30;9.85;;;;;;;-4.02;100.00;102273.78;5000980;28;20406;-74
2023/02/08 00:36:51;;;;;;;18.48;9.88;;;;;;;-3.42;100.00;102412.44;5005139;28;20046;-73
2023/02/08 00:39:16;;;;;;;13.00;9.73;;;;;;;-3.30;100.00;102435.72;5006985;28;20398;-71
2023/02/08 00:41:41;;;;;;;18.35;10.60;;;;;;;-4.15;100.00;102299.97;5002681;28;20042;-73
2023/02/08 00:44:07;;;;;;;15.15;10.23;;;;;;;-3.32;100.00;102451.00;5000310;28;20042;-70
2023/02/08 00:46:32;;;;;;;21.95;11.07;;;;;;;-3.26;100.00;102445.50;5003273;28;20154;-73
2023/02/08 00:48:58;;;;;;;13.98;8.07;;;;;;;-3.44;100.00;102402.03;5003733;28;20505;-76
2023/02/08 00:51:23;;;;;;;17.10;8.65;;;;;;;-4.64;100.00;102190.53;5005224;28;20057;-72
2023/02/08 00:53:49;;;;;;;16.63;9.48;;;;;;;-2.97;100.00;102479.78;5003951;28;20033;-72
2023/02/08 00:56:15;;;;;;;14.88;9.35;;;;;;;-3.26;100.00;102466.91;5000003;28;20057;-76
2023/02/08 00:58:42;;;;;;;16.20;9.75;;;;;;;-2.79;100.00;102519.03;5002118;28;20046;-76
2023/02/08 01:01:08;;;;;;;18.20;9.80;;;;;;;-2.68;100.00;102508.78;4992358;28;20554;-72
2023/02/08 01:03:36;;;;;;;16.80;9.48;;;;;;;-3.67;100.00;102356.41;5004964;28;20057;-72
2023/02/08 01:06:04;;;;;;;19.90;9.82;;;;;;;-3.14;100.00;102495.34;5006139;28;20101;-71
2023/02/08 01:08:30;;;;;;;14.45;8.35;;;;;;;-3.22;100.00;102573.34;5003424;28;20037;-75
2023/02/08 01:11:07;;;;;;;18.45;11.10;;;;;;;-3.18;100.00;102565.19;5001821;28;20807;-72
2023/02/08 01:13:33;;;;;;;11.15;7.55;;;;;;;-3.22;100.00;102563.97;5001821;28;20046;-73
2023/02/08 01:16:14;;;;;;;15.10;8.38;;;;;;;-3.80;100.00;102417.59;5001902;28;20050;-72
2023/02/08 01:18:42;;;;;;;12.68;8.45;;;;;;;-3.77;100.00;102494.84;5006164;28;20053;-72
2023/02/08 01:21:10;;;;;;;18.65;10.18;;;;;;;-3.12;100.00;102580.22;4994829;28;20041;-71
2023/02/08 01:23:38;;;;;;;17.45;11.85;;;;;;;-3.42;100.00;102533.03;4999679;28;20132;-72
2023/02/08 01:26:04;;;;;;;20.70;10.27;;;;;;;-3.41;100.00;102512.66;4998009;28;20065;-73
2023/02/08 01:28:30;;;;;;;19.40;11.27;;;;;;;-2.97;100.00;102630.41;4998311;28;20038;-72
2023/02/08 01:30:56;;;;;;;20.95;10.13;;;;;;;-3.79;100.00;102501.50;5001408;28;20076;-71
2023/02/08 01:33:21;;;;;;;17.25;10.25;;;;;;;-3.66;100.00;102530.06;5003341;28;20046;-75
2023/02/08 01:35:51;;;;;;;15.30;8.95;;;;;;;-2.76;100.00;102655.44;5000407;28;20022;-71
2023/02/08 01:38:17;;;;;;;15.65;9.95;;;;;;;-3.82;100.00;102514.03;5000717;28;20065;-72
2023/02/08 01:40:43;;;;;;;16.02;8.25;;;;;;;-3.86;100.00;102525.69;4996637;28;20133;-71
2023/02/08 01:43:30;;;;;;;19.23;10.60;;;;;;;-3.43;100.00;102631.34;4998357;28;20561;-74
2023/02/08 01:45:56;;;;;;;16.67;9.88;;;;;;;-3.77;100.00;102570.88;4996522;28;20422;-74
2023/02/08 01:48:47;;;;;;;17.15;8.00;;;;;;;-4.35;100.00;102505.75;4997514;28;20050;-74
2023/02/08 01:51:19;;;;;;;19.48;11.05;;;;;;;-4.15;100.00;102537.44;5006414;28;20813;-74
2023/02/08 01:53:46;;;;;;;17.48;9.00;;;;;;;-4.22;100.00;102548.78;5008848;28;20034;-74
2023/02/08 01:56:16;;;;;;;20.10;10.50;;;;;;;-3.46;100.00;102688.41;4998205;28;20104;-73
2023/02/08 01:58:47;;;;;;;17.52;10.32;;;;;;;-3.84;100.00;102590.84;4997725;28;20080;-75
2023/02/08 02:01:13;;;;;;;24.35;12.10;;;;;;;-3.25;100.00;102711.72;5007122;28;20078;-72
2023/02/08 02:03:39;;;;;;;17.42;9.68;;;;;;;-3.36;100.00;102712.38;4993330;28;20557;-79
2023/02/08 02:06:12;;;;;;;20.45;11.65;;;;;;;-4.23;100.00;102582.88;5002412;28;20526;-75
2023/02/08 02:08:46;;;;;;;13.82;7.93;;;;;;;-3.43;100.00;102722.06;4997820;28;20025;-72
2023/02/08 02:11:12;;;;;;;18.48;9.05;;;;;;;-4.06;100.00;102598.16;4996503;28;20095;-73
2023/02/08 02:13:39;;;;;;;17.35;9.70;;;;;;;-3.38;100.00;102753.28;4996628;28;20057;-75
2023/02/08 02:16:05;;;;;;;15.10;10.00;;;;;;;-3.35;100.00;102768.06;4997333;28;20081;-74
2023/02/08 02:18:32;;;;;;;17.15;10.02;;;;;;;-3.56;100.00;102742.19;4998001;28;20133;-75
2023/02/08 02:21:16;;;;;;;24.67;9.60;;;;;;;-3.36;100.00;102763.69;4996955;28;20081;-77
2023/02/08 02:24:32;;;;;;;13.63;8.07;;;;;;;-3.94;100.00;102625.72;4997987;28;20038;-76
2023/02/08 02:27:22;;;;;;;14.05;8.45;;;;;;;-3.23;100.00;102776.91;4956427;28;20062;-73
2023/02/08 02:29:56;;;;;;;13.15;7.88;;;;;;;-3.30;100.00;102784.78;4992263;28;20128;-74
2023/02/08 02:32:41;;;;;;;18.48;8.52;;;;;;;-3.16;100.00;102781.88;4999636;28;20049;-75
2023/02/08 02:35:24;;;;;;;16.10;9.63;;;;;;;-3.29;100.00;102784.06;4998604;28;20391;-75
2023/02/08 02:38:27;;;;;;;17.25;11.38;;;;;;;-3.17;100.00;102787.75;4997340;28;20050;-76
2023/02/08 02:41:13;;;;;;;14.13;8.63;;;;;;;-3.56;100.00;102670.34;4997619;28;20073;-74
2023/02/08 02:43:46;;;;;;;18.73;9.38;;;;;;;-3.25;100.00;102745.09;4997618;28;20502;-78
2023/02/08 02:46:15;;;;;;;21.05;9.45;;;;;;;-3.12;100.00;102795.91;5001358;28;20050;-73
2023/02/08 02:49:05;;;;;;;15.32;7.75;;;;;;;-3.69;100.00;102682.78;4998264;28;20133;-77
2023/02/08 02:51:47;;;;;;;14.25;6.80;;;;;;;-3.36;100.00;102810.81;4995680;28;20062;-80
2023/02/08 02:54:18;;;;;;;16.05;8.52;;;;;;;-4.14;100.00;102672.56;4991351;28;20038;-74
2023/02/08 02:56:46;;;;;;;16.05;7.80;;;;;;;-4.06;100.00;102621.25;5003966;28;20065;-76
2023/02/08 02:59:14;;;;;;;14.88;10.15;;;;;;;-2.79;100.00;102811.91;5005737;28;20069;-75
2023/02/08 03:01:42;;;;;;;13.50;8.20;;;;;;;-3.58;100.00;102753.06;5002936;28;20493;-75
2023/02/08 03:04:16;;;;;;;18.92;11.15;;;;;;;-3.28;100.00;102791.91;5002307;28;20053;-73
2023/02/08 03:07:04;;;;;;;18.65;9.18;;;;;;;-4.21;100.00;102682.94;4998755;28;20097;-74
2023/02/08 03:09:29;;;;;;;14.20;8.38;;;;;;;-3.40;100.00;102829.22;4999786;28;20129;-74
2023/02/08 03:12:27;;;;;;;15.80;8.15;;;;;;;-3.49;100.00;102831.84;5000016;28;20454;-80
2023/02/08 03:15:23;;;;;;;14.30;7.53;;;;;;;-3.58;100.00;102830.03;5005622;28;20125;-73
2023/02/08 03:18:21;;;;;;;17.40;8.95;;;;;;;-3.67;100.00;102837.78;5002274;28;20062;-75
2023/02/08 03:21:00;;;;;;;20.58;9.02;;;;;;;-4.54;100.00;102685.00;4997588;28;20053;-76
2023/02/08 03:23:25;;;;;;;15.60;8.07;;;;;;;-3.68;100.00;102833.38;5006908;28;20065;-74
2023/02/08 03:25:58;;;;;;;17.17;8.80;;;;;;;-3.88;100.00;102796.47;5001739;28;20149;-74
2023/02/08 03:28:55;;;;;;;15.77;8.13;;;;;;;-3.44;100.00;102843.44;4997459;28;20050;-72
2023/02/08 03:31:52;;;;;;;16.30;8.38;;;;;;;-3.68;100.00;102843.63;4990547;28;20542;-76
2023/02/08 03:34:38;;;;;;;13.93;8.48;;;;;;;-3.81;100.00;102859.53;4992407;28;20051;-73
2023/02/08 03:37:10;;;;;;;20.88;10.73;;;;;;;-4.51;100.00;102726.28;5000257;28;20046;-73
2023/02/08 03:39:38;;;;;;;15.85;8.25;;;;;;;-3.79;100.00;102824.66;5002668;28;20046;-75
2023/02/08 03:42:12;;;;;;;19.70;7.75;;;;;;;-3.67;100.00;102832.63;4998544;28;20080;-74
2023/02/08 03:44:43;;;;;;;16.05;8.63;;;;;;;-3.53;100.00;102829.72;5005604;28;20029;-75
2023/02/08 03:47:23;;;;;;;18.77;9.57;;;;;;;-3.64;100.00;102849.22;4999647;28;21807;-74
2023/02/08 03:49:52;;;;;;;14.25;8.90;;;;;;;-4.55;100.00;102724.16;5000113;28;20133;-75
2023/02/08 03:52:18;;;;;;;13.05;7.43;;;;;;;-3.95;100.00;102844.44;5009001;28;20085;-74
2023/02/08 03:55:12;;;;;;;13.52;7.20;;;;;;;-3.96;100.00;102871.72;5003415;28;20073;-74
2023/02/08 03:57:47;;;;;;;17.13;8.48;;;;;;;-3.70;100.00;102873.38;4996653;28;20054;-77
2023/02/08 04:00:15;;;;;;;20.95;9.30;;;;;;;-3.98;100.00;102860.44;5007529;28;20051;-75
2023/02/08 04:03:16;;;;;;;15.88;9.07;;;;;;;-3.70;100.00;102884.56;5002450;28;20158;-78
2023/02/08 04:05:42;;;;;;;14.50;9.23;;;;;;;-3.52;100.00;102890.53;5001142;28;20046;-75
2023/02/08 04:08:08;;;;;;;16.70;7.07;;;;;;;-3.94;100.00;102831.75;5000978;28;20443;-74
2023/02/08 04:10:33;;;;;;;19.83;10.13;;;;;;;-3.86;100.00;102850.47;5000636;28;20046;-74
2023/02/08 04:12:59;;;;;;;15.50;7.35;;;;;;;-3.53;100.00;102882.72;4999229;28;20136;-73
2023/02/08 04:15:26;;;;;;;18.58;8.30;;;;;;;-4.28;100.00;102766.06;5003845;28;20797;-73
2023/02/08 04:17:52;;;;;;;14.48;8.88;;;;;;;-4.39;100.00;102747.06;4994238;28;20470;-73
2023/02/08 04:20:18;;;;;;;12.93;6.43;;;;;;;-3.85;100.00;102872.78;5001596;28;20107;-74
2023/02/08 04:22:43;;;;;;;12.13;6.30;;;;;;;-4.35;100.00;102830.28;5000227;28;20482;-73
2023/02/08 04:25:09;;;;;;;16.10;7.45;;;;;;;-4.25;100.00;102833.88;5001262;28;20129;-73
2023/02/08 04:27:34;;;;;;;13.00;6.90;;;;;;;-4.65;100.00;102787.16;5006350;28;20046;-78
2023/02/08 04:30:00;;;;;;;11.93;6.18;;;;;;;-3.83;100.00;102920.00;5003567;28;20038;-74
2023/02/08 04:32:25;;;;;;;15.55;9.35;;;;;;;-4.68;100.00;102768.16;5002646;28;20037;-76
2023/02/08 04:34:51;;;;;;;12.73;7.47;;;;;;;-3.84;100.00;102944.75;4997702;28;20041;-75
2023/02/08 04:37:16;;;;;;;13.43;6.53;;;;;;;-4.98;100.00;102786.47;5000980;28;20050;-73
2023/02/08 04:39:42;;;;;;;15.20;7.05;;;;;;;-4.05;100.00;102937.47;5008476;28;20042;-74
2023/02/08 04:42:08;;;;;;;14.70;7.53;;;;;;;-4.25;100.00;102936.41;4998198;28;20034;-75
2023/02/08 04:44:34;;;;;;;13.25;8.02;;;;;;;-4.93;100.00;102794.63;5006825;28;20127;-72
2023/02/08 04:47:00;;;;;;;13.35;7.47;;;;;;;-5.15;100.00;102779.66;4995109;28;20097;-75
2023/02/08 04:49:25;;;;;;;14.38;7.60;;;;;;;-4.28;100.00;102915.59;5003666;28;20095;-75
2023/02/08 04:51:50;;;;;;;16.08;7.68;;;;;;;-4.21;100.00;102937.63;5006323;28;20065;-72
2023/02/08 04:54:16;;;;;;;12.85;6.45;;;;;;;-4.82;100.00;102827.34;5006293;28;20045;-73
2023/02/08 04:56:41;;;;;;;13.50;6.55;;;;;;;-3.77;100.00;102947.91;5002338;28;20053;-73
2023/02/08 04:59:07;;;;;;;20.45;8.20;;;;;;;-4.20;100.00;102915.47;5002140;28;20050;-74
2023/02/08 05:01:32;;;;;;;12.57;7.53;;;;;;;-4.19;100.00;102950.59;5001749;28;20045;-77
2023/02/08 05:03:58;;;;;;;11.15;6.28;;;;;;;-4.89;100.00;102832.59;5001250;28;20092;-73
2023/02/08 05:06:23;;;;;;;13.82;6.80;;;;;;;-4.12;100.00;102937.63;5003743;28;20049;-73
2023/02/08 05:08:49;;;;;;;13.90;7.35;;;;;;;-4.67;100.00;102851.00;5003499;28;20053;-73
2023/02/08 05:11:22;;;;;;;15.68;8.88;;;;;;;-4.09;100.00;102953.34;5000064;28;20517;-76
2023/02/08 05:13:48;;;;;;;;;;;;;;;-3.98;100.00;102982.59;5004900;28;20050;-73
2023/02/08 05:16:13;;;;;;;16.42;7.63;;;;;;;-4.11;100.00;102973.69;5004623;28;19940;-75
2023/02/08 05:18:39;;;;;;;16.63;8.55;;;;;;;-4.76;100.00;102863.78;5004648;28;20466;-74
2023/02/08 05:21:04;;;;;;;18.50;8.27;;;;;;;-5.00;100.00;102811.00;5000821;28;20046;-74
2023/02/08 05:23:30;;;;;;;13.50;7.65;;;;;;;-3.90;100.00;102989.41;5007646;28;20132;-74
2023/02/08 05:25:56;;;;;;;11.18;6.35;;;;;;;-3.72;100.00;103014.34;5006952;28;20053;-73
2023/02/08 05:28:22;;;;;;;15.80;7.47;;;;;;;-3.74;100.00;103015.84;4997643;28;20054;-74
2023/02/08 05:30:47;;;;;;;22.58;8.40;;;;;;;-4.57;100.00;102881.91;5007190;28;20053;-74
2023/02/08 05:33:13;;;;;;;13.48;6.80;;;;;;;-4.46;100.00;102877.88;5006942;28;20108;-73
2023/02/08 05:35:39;;;;;;;8.95;5.55;;;;;;;-4.00;100.00;102984.09;5002110;28;20034;-78
2023/02/08 05:38:04;;;;;;;12.95;6.60;;;;;;;-4.29;100.00;102923.13;4995083;28;20078;-74
2023/02/08 05:40:32;;;;;;;12.57;7.25;;;;;;;-3.83;100.00;103027.72;4999635;28;20058;-74
2023/02/08 05:42:57;;;;;;;17.23;7.88;;;;;;;-3.88;100.00;103014.44;4998471;28;20166;-76
2023/02/08 05:45:23;;;;;;;17.73;6.85;;;;;;;-3.70;100.00;103043.63;4999529;28;20038;-74
2023/02/08 05:47:49;;;;;;;13.02;7.82;;;;;;;-4.13;100.00;102977.75;4994034;28;20069;-72
2023/02/08 05:50:14;;;;;;;14.52;7.43;;;;;;;-4.27;100.00;102937.00;5003661;28;20137;-73
2023/02/08 05:52:40;;;;;;;14.68;7.53;;;;;;;-4.35;100.00;102896.91;5008240;28;20061;-73
2023/02/08 05:55:06;;;;;;;15.95;8.35;;;;;;;-4.44;100.00;102902.00;5002487;28;20073;-73
2023/02/08 05:57:32;;;;;;;15.38;5.68;;;;;;;-3.71;100.00;103015.22;5000657;28;20045;-72
2023/02/08 05:59:58;;;;;;;9.63;6.18;;;;;;;-3.46;100.00;103046.81;5000444;28;20056;-74
2023/02/08 06:02:23;;;;;;;15.70;7.47;;;;;;;-3.34;100.00;103062.50;5003864;28;20037;-76
2023/02/08 06:04:49;;;;;;;15.27;6.50;;;;;;;-3.40;100.00;103042.25;5002732;28;20462;-73
2023/02/08 06:07:14;;;;;;;11.32;6.75;;;;;;;-3.65;100.00;102962.88;5002235;28;20045;-74
2023/02/08 06:09:40;;;;;;;11.02;5.68;;;;;;;-3.94;100.00;102918.94;4999288;28;20096;-75
2023/02/08 06:12:06;;;;;;;11.63;6.05;;;;;;;-3.10;100.00;103049.50;4999658;28;20021;-75
2023/02/08 06:14:31;;;;;;;12.63;6.15;;;;;;;-3.32;100.00;103025.97;5005070;28;20065;-79
2023/02/08 06:16:57;;;;;;;13.65;7.07;;;;;;;-3.21;100.00;103055.22;5002289;28;20057;-75
2023/02/08 06:19:24;;;;;;;15.98;7.03;;;;;;;-3.15;100.00;103073.81;5003581;28;20121;-75
2023/02/08 06:21:49;;;;;;;14.35;7.15;;;;;;;-3.34;100.00;103036.84;5001652;28;21236;-74
2023/02/08 06:24:15;;;;;;;18.55;7.22;;;;;;;-3.16;100.00;103073.66;4999761;28;20055;-75
2023/02/08 06:26:42;;;;;;;10.02;5.90;;;;;;;-3.97;100.00;102907.50;4999489;28;20038;-73
2023/02/08 06:29:08;;;;;;;18.05;7.18;;;;;;;-4.36;100.00;102831.00;5000063;28;20498;-76
2023/02/08 06:31:35;;;;;;;16.20;6.45;;;;;;;-3.21;100.00;103030.50;4989091;28;20140;-79
2023/02/08 06:34:00;;;;;;;20.48;9.13;;;;;;;-3.80;100.00;102943.38;4986602;28;20057;-75
2023/02/08 06:36:26;;;;;;;16.55;7.68;;;;;;;-3.91;100.00;102926.03;4995047;28;20405;-74
2023/02/08 06:38:52;;;;;;;12.00;7.45;;;;;;;-2.91;100.00;103033.31;4990554;28;20422;-77
2023/02/08 06:41:17;;;;;;;14.80;8.40;;;;;;;-2.92;100.00;103054.63;4993977;28;20108;-78
2023/02/08 06:43:43;;;;;;;17.58;7.53;;;;;;;-3.99;100.00;102885.91;4996925;28;20046;-74
2023/02/08 06:46:08;;;;;;;15.30;6.03;;;;;;;-3.24;100.00;103045.56;4989410;28;20042;-79
2023/02/08 06:48:34;;;;;;;11.15;7.18;;;;;;;-2.90;100.00;103071.06;4996708;28;20050;-78
2023/02/08 06:51:00;;;;;;;14.32;7.57;;;;;;;-2.89;100.00;103080.59;4989515;28;20460;-76
2023/02/08 06:53:26;;;;;;;16.38;8.93;;;;;;;-2.96;100.00;103068.81;4990974;28;20042;-74
2023/02/08 06:55:51;;;;;;;16.77;7.90;;;;;;;-3.44;100.00;103005.13;4990613;28;20064;-73
2023/02/08 06:58:18;;;;;;;14.68;6.95;;;;;;;-3.67;100.00;102961.81;4996834;28;20073;-74
2023/02/08 07:00:46;;;;;;;16.35;9.15;;;;;;;-3.09;100.00;103074.44;4998990;28;20046;-74
2023/02/08 07:03:14;;;;;;;19.63;8.77;;;;;;;-3.63;100.00;102956.22;4997534;28;20045;-75
2023/02/08 07:05:40;;;;;;;14.88;8.93;;;;;;;-3.67;100.00;102940.38;4997410;28;20432;-78
2023/02/08 07:08:06;;;;;;;17.55;9.23;;;;;;;-2.91;100.00;103084.69;4987985;28;20455;-76
2023/02/08 07:10:32;;;;;;;14.25;8.30;;;;;;;-3.01;100.00;103076.06;4992856;28;20050;-74
2023/02/08 07:12:58;;;;;;;20.25;9.68;;;;;;;-3.03;100.00;103107.50;5000830;28;20050;-72
2023/02/08 07:15:23;;;;;;;13.30;7.53;;;;;;;-2.83;100.00;103081.22;4996707;28;20169;-73
2023/02/08 07:17:49;;;;;;;17.13;9.88;;;;;;;-3.42;100.00;102961.63;5006331;28;20026;-73
2023/02/08 07:20:14;;;;;;;15.20;8.30;;;;;;;-2.92;100.00;103098.28;4991163;28;20069;-77
2023/02/08 07:22:40;;;;;;;17.67;9.50;;;;;;;-2.80;100.00;103113.22;5001647;28;20145;-73
2023/02/08 07:25:07;;;;;;;15.68;8.00;;;;;;;-2.85;100.00;103086.19;4995439;28;20054;-75
2023/02/08 07:27:33;;;;;;;19.50;10.95;;;;;;;-3.26;100.00;103020.50;4999965;28;20042;-74
2023/02/08 07:29:59;;;;;;;13.30;8.52;;;;;;;-3.02;100.00;103083.63;4997262;28;20088;-75
2023/02/08 07:32:24;;;;;;;17.25;9.63;;;;;;;-3.11;100.00;103101.63;4992892;28;20489;-75
2023/02/08 07:34:50;;;;;;;14.85;8.07;;;;;;;-3.08;100.00;103095.88;4993799;28;20053;-76
2023/02/08 07:37:16;;;;;;;24.10;8.30;;;;;;;-3.29;100.00;103080.16;4990290;28;20082;-76
2023/02/08 07:39:41;;;;;;;20.50;8.70;;;;;;;-3.04;100.00;103121.13;4995057;28;20064;-77
2023/02/08 07:42:08;;;;;;;13.40;7.95;;;;;;;-3.17;100.00;103125.78;4992247;28;20371;-76
2023/02/08 07:44:36;;;;;;;14.98;9.23;;;;;;;-3.21;100.00;103134.81;4993906;28;20113;-72
2023/02/08 07:47:01;;;;;;;12.38;7.28;;;;;;;-3.85;100.00;103011.28;4992090;28;20641;-76
2023/02/08 07:49:27;;;;;;;11.85;7.03;;;;;;;-3.33;100.00;103119.13;4998789;28;20049;-73
2023/02/08 07:51:52;;;;;;;17.48;8.90;;;;;;;-3.51;100.00;103095.09;4996908;28;20115;-74
2023/02/08 07:54:18;;;;;;;15.48;8.20;;;;;;;-3.10;100.00;103129.09;5000707;28;20038;-75
2023/02/08 07:56:43;;;;;;;19.13;9.70;;;;;;;-4.07;100.00;102985.16;4997004;28;20108;-78
2023/02/08 07:59:09;;;;;;;17.23;8.38;;;;;;;-3.51;100.00;103081.34;5000024;28;20042;-74
2023/02/08 08:01:35;;;;;;;17.40;10.02;;;;;;;-3.76;100.00;102993.34;4998571;28;20045;-74
2023/02/08 08:04:00;;;;;;;18.63;9.90;;;;;;;-2.92;100.00;103139.41;4991568;28;20061;-73
2023/02/08 08:06:26;;;;;;;16.48;6.95;;;;;;;-3.21;100.00;103142.53;4996952;28;20050;-76
2023/02/08 08:08:52;;;;;;;15.20;7.22;;;;;;;-3.02;100.00;103145.25;4994650;28;20044;-77
2023/02/08 08:11:20;;;;;;;19.30;7.07;;;;;;;-4.61;100.00;102900.31;4998102;28;20516;-74
2023/02/08 08:13:46;;;;;;;15.02;7.90;;;;;;;-3.27;100.00;103127.44;4995000;28;20169;-75
2023/02/08 08:16:12;;;;;;;12.85;7.30;;;;;;;-3.42;100.00;103114.00;4997728;28;20075;-73
2023/02/08 08:18:38;;;;;;;15.20;8.18;;;;;;;-3.06;100.00;103138.94;4999294;28;20050;-77
2023/02/08 08:21:03;;;;;;;17.15;9.38;;;;;;;-3.79;100.00;103006.78;4995009;28;20092;-74
2023/02/08 08:23:31;;;;;;;13.70;8.80;;;;;;;-3.35;100.00;103114.59;4996209;28;20034;-76
2023/02/08 08:25:58;;;;;;;15.90;9.73;;;;;;;-3.36;100.00;103034.09;5003385;28;20058;-76
2023/02/08 08:28:23;;;;;;;24.10;9.77;;;;;;;-3.46;100.00;103006.63;4996709;28;20104;-75
2023/02/08 08:30:49;;;;;;;17.58;7.72;;;;;;;-2.55;100.00;103155.06;5000399;28;20472;-76
2023/02/08 08:33:14;;;;;;;15.95;7.43;;;;;;;-2.99;100.00;103131.06;5004448;28;20049;-76
2023/02/08 08:35:41;;;;;;;19.42;10.02;;;;;;;-2.68;100.00;103182.00;5006961;28;20698;-75
2023/02/08 08:38:06;;;;;;;18.77;9.15;;;;;;;-3.85;100.00;103021.53;4996175;28;20077;-74
2023/02/08 08:40:32;;;;;;;20.75;8.20;;;;;;;-2.91;100.00;103175.50;5001215;28;21006;-74
2023/02/08 08:42:57;;;;;;;15.73;7.85;;;;;;;-3.43;100.00;103036.84;4998120;28;20049;-75
2023/02/08 08:45:23;;;;;;;12.30;6.68;;;;;;;-3.93;100.00;103040.41;5000352;28;20042;-75
2023/02/08 08:47:48;;;;;;;13.10;7.43;;;;;;;-2.89;100.00;103163.72;5004902;28;20041;-73
2023/02/08 08:50:14;;;;;;;12.90;8.50;;;;;;;-2.90;100.00;103174.75;5003552;28;20050;-73
2023/02/08 08:52:41;;;;;;;17.40;8.82;;;;;;;-2.63;100.00;103171.41;5002437;28;20557;-78
2023/02/08 08:55:08;;;;;;;15.25;9.13;;;;;;;-3.18;100.00;103070.97;5001716;28;20066;-76
2023/02/08 08:57:33;;;;;;;13.95;7.13;;;;;;;-2.78;100.00;103168.25;4991507;28;20579;-75
2023/02/08 08:59:59;;;;;;;15.30;7.28;;;;;;;-3.25;100.00;103023.25;5006476;28;20102;-75
2023/02/08 09:02:24;;;;;;;18.38;11.23;;;;;;;-2.64;100.00;103161.00;5004729;28;20030;-76
2023/02/08 09:04:50;;;;;;;13.68;8.48;;;;;;;-3.04;100.00;103165.69;4998837;28;20043;-76
2023/02/08 09:07:15;;;;;;;14.88;8.00;;;;;;;-3.72;100.00;103039.06;5003694;28;20042;-75
2023/02/08 09:09:41;;;;;;;18.70;9.80;;;;;;;-3.47;100.00;103040.75;5003899;28;20496;-75
2023/02/08 09:12:07;;;;;;;17.65;9.30;;;;;;;-2.65;100.00;103121.50;4998208;28;20135;-76
2023/02/08 09:14:32;;;;;;;13.18;7.53;;;;;;;-2.47;100.00;103136.91;5000864;28;20070;-74
2023/02/08 09:16:58;;;;;;;15.65;8.82;;;;;;;-2.95;100.00;103018.34;4994635;28;20491;-73
2023/02/08 09:19:24;;;;;;;17.60;7.32;;;;;;;-2.40;100.00;103132.50;5002249;28;20417;-73
2023/02/08 09:21:49;;;;;;;18.23;7.05;;;;;;;-2.83;100.00;103102.66;5001904;28;20422;-74
2023/02/08 09:24:15;;;;;;;13.43;7.68;;;;;;;-3.49;100.00;103011.47;4998308;28;20793;-73
2023/02/08 09:26:41;;;;;;;19.42;11.07;;;;;;;-2.94;100.00;103136.66;5003831;28;20406;-77
2023/02/08 09:29:07;;;;;;;22.02;10.60;;;;;;;-3.16;100.00;103089.06;5002181;28;20077;-75
2023/02/08 09:31:36;;;;;;;19.67;9.55;;;;;;;-3.12;100.00;103068.97;5003659;28;20038;-76
2023/02/08 09:34:03;;;;;;;19.05;9.93;;;;;;;-2.92;100.00;103103.44;4996119;28;20034;-76
2023/02/08 09:36:32;;;;;;;14.52;9.75;;;;;;;-2.80;100.00;103081.50;5000658;28;20071;-74
2023/02/08 09:39:01;;;;;;;22.75;11.52;;;;;;;-3.49;100.00;102972.97;4997987;28;20100;-74
2023/02/08 09:41:41;;;;;;;18.50;8.85;;;;;;;-3.17;100.00;103120.66;4994561;28;20861;-76
2023/02/08 09:44:12;;;;;;;16.65;8.48;;;;;;;-3.21;100.00;103112.66;4997706;28;20050;-76
2023/02/08 09:46:44;;;;;;;22.15;13.60;;;;;;;-3.78;100.00;102948.69;5001657;28;20116;-76
2023/02/08 09:49:17;;;;;;;17.80;11.15;;;;;;;-3.43;100.00;102982.94;4995635;28;20126;-74
2023/02/08 09:51:55;;;;;;;24.38;9.10;;;;;;;-3.43;100.00;102929.94;4998039;28;20491;-77
2023/02/08 09:54:31;;;;;;;22.75;10.57;;;;;;;-2.34;100.00;103025.13;4993403;28;20129;-77
2023/02/08 09:57:00;;;;;;;22.10;11.65;;;;;;;-3.11;100.00;102903.91;4999950;28;20141;-77
2023/02/08 09:59:28;;;;;;;23.75;8.95;;;;;;;-3.71;100.00;102930.56;4999372;28;20045;-76
2023/02/08 10:02:24;;;;;;;23.33;12.60;;;;;;;-2.70;100.00;103060.16;4993505;28;20081;-83
2023/02/08 10:05:12;;;;;;;23.30;11.38;;;;;;;-2.67;100.00;103042.47;4998301;28;20114;-76
2023/02/08 10:07:40;;;;;;;21.00;13.25;;;;;;;-3.00;100.00;102925.44;5000873;28;20084;-76
2023/02/08 10:10:12;;;;;;;24.67;11.25;;;;;;;-1.71;100.00;103007.81;5005323;28;20475;-77
2023/02/08 10:13:16;;;;;;;18.60;12.30;;;;;;;-2.11;100.00;102928.63;5001275;28;20044;-77
2023/02/08 10:15:50;;;;;;;27.10;9.70;;;;;;;-1.41;100.00;103055.09;5004980;28;20060;-74
2023/02/08 10:18:36;;;;;;;18.65;9.93;;;;;;;-1.46;100.00;103050.31;4992436;28;20129;-75
2023/02/08 10:21:49;;;;;;;18.95;9.93;;;;;;;-1.91;100.00;103052.28;4991520;28;20030;-76
2023/02/08 10:24:40;;;;;;;21.55;11.30;;;;;;;-2.59;100.00;103055.28;4990813;28;20058;-73
2023/02/08 10:27:13;;;;;;;29.65;12.93;;;;;;;-2.37;100.00;103063.38;4999930;28;20034;-80
2023/02/08 10:29:42;;;;;;;23.08;13.18;;;;;;;-2.83;100.00;102927.97;5001468;28;20083;-76
2023/02/08 10:32:43;;;;;;;21.30;11.48;;;;;;;-2.26;100.00;103061.84;5001048;28;20058;-76
2023/02/08 10:35:13;;;;;;;22.50;12.25;;;;;;;-2.45;100.00;103046.34;4997544;28;20203;-75
2023/02/08 10:37:43;;;;;;;22.27;13.25;;;;;;;-2.93;100.00;102908.97;4995900;28;20136;-77
2023/02/08 10:40:19;;;;;;;26.65;14.40;;;;;;;-2.02;100.00;103042.66;5000264;28;20042;-81
2023/02/08 10:42:50;;;;;;;28.30;14.68;;;;;;;-2.56;100.00;102967.28;5000833;28;20511;-76
2023/02/08 10:45:31;;;;;;;25.00;14.40;;;;;;;-2.44;100.00;103026.66;5002100;28;20038;-76
2023/02/08 10:48:06;;;;;;;29.45;17.30;;;;;;;-1.91;100.00;103023.06;4998982;28;20061;-76
2023/02/08 10:50:42;;;;;;;45.75;27.80;;;;;;;-2.88;100.00;102915.44;4999833;28;20430;-75
2023/02/08 10:53:15;;;;;;;16.00;11.32;;;;;;;-2.71;100.00;102929.91;4998411;28;20082;-75
2023/02/08 10:55:43;;;;;;;20.15;13.55;;;;;;;-1.75;100.00;103036.59;4999115;28;20068;-76
2023/02/08 10:58:16;;;;;;;23.70;13.18;;;;;;;-1.49;100.00;102991.72;5003962;28;20046;-74
2023/02/08 11:00:43;;;;;;;23.65;12.18;;;;;;;-1.85;100.00;103049.38;5017021;28;20411;-79
2023/02/08 11:03:22;;;;;;;25.42;12.88;;;;;;;-2.10;100.00;103048.75;4994806;28;20105;-73
2023/02/08 11:05:48;;;;;;;16.35;9.90;;;;;;;-2.36;100.00;102934.09;4992549;28;20387;-75
2023/02/08 11:08:18;;;;;;;19.08;11.20;;;;;;;-1.64;100.00;103032.44;4999719;28;20123;-76
2023/02/08 11:11:08;;;;;;;22.25;11.68;;;;;;;-0.98;100.00;103059.00;4997120;28;20097;-76
2023/02/08 11:13:42;;;;;;;20.35;13.75;;;;;;;-2.03;100.00;103071.72;5003400;28;20053;-74
2023/02/08 11:16:20;;;;;;;23.05;12.45;;;;;;;-2.22;100.00;102944.75;4997947;28;20041;-75
2023/02/08 11:18:55;;;;;;;24.83;13.85;;;;;;;-1.52;100.00;103030.09;4994734;28;20030;-74